sensor_id;sensor_type;location;lat;lon;timestamp;P1;durP1;ratioP1;P2;durP2;ratioP2
4202;SDS011;2115;51.038;7.006;2023-04-24T00:00:03;1.30;;;0.80;;
4202;SDS011;2115;51.038;7.006;2023-04-24T00:02:34;1.20;;;0.80;;
4202;SDS011;2115;51.038;7.006;2023-04-24T00:04:59;1.40;;;0.80;;
4202;SDS011;2115;51.038;7.006;2023-04-24T00:07:28;1.83;;;0.80;;
4202;SDS011;2115;51.038;7.006;2023-04-24T00:09:53;5.23;;;0.90;;
4202;SDS011;2115;51.038;7.006;2023-04-24T00:12:19;2.83;;;1.00;;
4202;SDS011;2115;51.038;7.006;2023-04-24T00:14:44;6.00;;;1.17;;
4202;SDS011;2115;51.038;7.006;2023-04-24T00:17:10;3.97;;;0.97;;
4202;SDS011;2115;51.038;7.006;2023-04-24T00:19:35;1.97;;;0.80;;
4202;SDS011;2115;51.038;7.006;2023-04-24T00:22:01;1.40;;;0.70;;
4202;SDS011;2115;51.038;7.006;2023-04-24T00:24:27;1.93;;;1.17;;
4202;SDS011;2115;51.038;7.006;2023-04-24T00:26:52;5.20;;;1.00;;
4202;SDS011;2115;51.038;7.006;2023-04-24T00:29:27;1.77;;;0.80;;
4202;SDS011;2115;51.038;7.006;2023-04-24T00:31:53;1.97;;;0.80;;
4202;SDS011;2115;51.038;7.006;2023-04-24T00:34:19;1.60;;;0.77;;
4202;SDS011;2115;51.038;7.006;2023-04-24T00:36:44;2.77;;;1.87;;
4202;SDS011;2115;51.038;7.006;2023-04-24T00:39:10;1.80;;;1.07;;
4202;SDS011;2115;51.038;7.006;2023-04-24T00:41:35;3.43;;;1.20;;
4202;SDS011;2115;51.038;7.006;2023-04-24T00:44:00;3.20;;;1.40;;
4202;SDS011;2115;51.038;7.006;2023-04-24T00:46:26;3.40;;;1.70;;
4202;SDS011;2115;51.038;7.006;2023-04-24T00:48:51;5.20;;;2.07;;
4202;SDS011;2115;51.038;7.006;2023-04-24T00:51:17;7.87;;;2.47;;
4202;SDS011;2115;51.038;7.006;2023-04-24T00:53:43;4.10;;;1.90;;
4202;SDS011;2115;51.038;7.006;2023-04-24T00:56:08;2.60;;;1.40;;
4202;SDS011;2115;51.038;7.006;2023-04-24T00:58:33;2.03;;;1.07;;
4202;SDS011;2115;51.038;7.006;2023-04-24T01:00:59;4.80;;;1.23;;
4202;SDS011;2115;51.038;7.006;2023-04-24T01:03:26;1.20;;;0.80;;
4202;SDS011;2115;51.038;7.006;2023-04-24T01:05:54;5.97;;;1.00;;
4202;SDS011;2115;51.038;7.006;2023-04-24T01:08:20;1.20;;;0.80;;
4202;SDS011;2115;51.038;7.006;2023-04-24T01:10:47;4.17;;;0.80;;
4202;SDS011;2115;51.038;7.006;2023-04-24T01:13:12;2.60;;;0.87;;
4202;SDS011;2115;51.038;7.006;2023-04-24T01:15:38;1.70;;;0.90;;
4202;SDS011;2115;51.038;7.006;2023-04-24T01:18:03;1.97;;;0.93;;
4202;SDS011;2115;51.038;7.006;2023-04-24T01:20:29;2.27;;;1.10;;
4202;SDS011;2115;51.038;7.006;2023-04-24T01:22:55;4.50;;;1.10;;
4202;SDS011;2115;51.038;7.006;2023-04-24T01:25:21;1.40;;;0.90;;
4202;SDS011;2115;51.038;7.006;2023-04-24T01:27:47;1.60;;;1.00;;
4202;SDS011;2115;51.038;7.006;2023-04-24T01:30:13;1.53;;;1.07;;
4202;SDS011;2115;51.038;7.006;2023-04-24T01:32:38;1.70;;;1.20;;
4202;SDS011;2115;51.038;7.006;2023-04-24T01:35:05;2.00;;;1.10;;
4202;SDS011;2115;51.038;7.006;2023-04-24T01:37:32;1.67;;;1.17;;
4202;SDS011;2115;51.038;7.006;2023-04-24T01:39:58;1.70;;;1.30;;
4202;SDS011;2115;51.038;7.006;2023-04-24T01:42:23;2.87;;;1.20;;
4202;SDS011;2115;51.038;7.006;2023-04-24T01:44:49;2.63;;;1.20;;
4202;SDS011;2115;51.038;7.006;2023-04-24T01:47:15;3.50;;;1.40;;
4202;SDS011;2115;51.038;7.006;2023-04-24T01:49:40;3.97;;;1.70;;
4202;SDS011;2115;51.038;7.006;2023-04-24T01:52:05;11.60;;;1.70;;
4202;SDS011;2115;51.038;7.006;2023-04-24T01:54:31;2.27;;;1.33;;
4202;SDS011;2115;51.038;7.006;2023-04-24T01:56:56;3.47;;;1.90;;
4202;SDS011;2115;51.038;7.006;2023-04-24T01:59:22;2.80;;;1.90;;
4202;SDS011;2115;51.038;7.006;2023-04-24T02:01:48;2.23;;;1.87;;
4202;SDS011;2115;51.038;7.006;2023-04-24T02:04:13;3.33;;;2.20;;
4202;SDS011;2115;51.038;7.006;2023-04-24T02:06:40;2.60;;;2.20;;
4202;SDS011;2115;51.038;7.006;2023-04-24T02:09:05;5.20;;;2.60;;
4202;SDS011;2115;51.038;7.006;2023-04-24T02:11:31;6.43;;;2.77;;
4202;SDS011;2115;51.038;7.006;2023-04-24T02:13:56;5.00;;;2.77;;
4202;SDS011;2115;51.038;7.006;2023-04-24T02:16:22;4.80;;;3.20;;
4202;SDS011;2115;51.038;7.006;2023-04-24T02:18:47;6.83;;;3.70;;
4202;SDS011;2115;51.038;7.006;2023-04-24T02:21:13;7.70;;;4.03;;
4202;SDS011;2115;51.038;7.006;2023-04-24T02:23:38;6.20;;;3.77;;
4202;SDS011;2115;51.038;7.006;2023-04-24T02:26:04;8.30;;;3.00;;
4202;SDS011;2115;51.038;7.006;2023-04-24T02:28:29;7.70;;;3.73;;
4202;SDS011;2115;51.038;7.006;2023-04-24T02:30:55;5.87;;;3.67;;
4202;SDS011;2115;51.038;7.006;2023-04-24T02:33:20;9.23;;;3.97;;
4202;SDS011;2115;51.038;7.006;2023-04-24T02:35:45;7.60;;;3.63;;
4202;SDS011;2115;51.038;7.006;2023-04-24T02:38:11;7.50;;;4.20;;
4202;SDS011;2115;51.038;7.006;2023-04-24T02:40:36;5.60;;;3.93;;
4202;SDS011;2115;51.038;7.006;2023-04-24T02:43:01;13.67;;;5.07;;
4202;SDS011;2115;51.038;7.006;2023-04-24T02:45:27;10.30;;;4.70;;
4202;SDS011;2115;51.038;7.006;2023-04-24T02:47:52;6.93;;;4.57;;
4202;SDS011;2115;51.038;7.006;2023-04-24T02:50:18;15.00;;;4.80;;
4202;SDS011;2115;51.038;7.006;2023-04-24T02:52:43;7.10;;;4.43;;
4202;SDS011;2115;51.038;7.006;2023-04-24T02:55:09;9.30;;;4.80;;
4202;SDS011;2115;51.038;7.006;2023-04-24T02:57:34;10.67;;;4.97;;
4202;SDS011;2115;51.038;7.006;2023-04-24T03:00:00;10.70;;;5.60;;
4202;SDS011;2115;51.038;7.006;2023-04-24T03:02:25;10.03;;;5.77;;
4202;SDS011;2115;51.038;7.006;2023-04-24T03:04:50;16.00;;;5.43;;
4202;SDS011;2115;51.038;7.006;2023-04-24T03:07:16;13.13;;;5.57;;
4202;SDS011;2115;51.038;7.006;2023-04-24T03:09:41;13.57;;;6.13;;
4202;SDS011;2115;51.038;7.006;2023-04-24T03:12:07;11.40;;;5.43;;
4202;SDS011;2115;51.038;7.006;2023-04-24T03:14:32;13.90;;;5.70;;
4202;SDS011;2115;51.038;7.006;2023-04-24T03:16:58;15.77;;;6.70;;
4202;SDS011;2115;51.038;7.006;2023-04-24T03:19:23;15.57;;;5.93;;
4202;SDS011;2115;51.038;7.006;2023-04-24T03:21:49;11.80;;;5.00;;
4202;SDS011;2115;51.038;7.006;2023-04-24T03:24:16;10.97;;;4.90;;
4202;SDS011;2115;51.038;7.006;2023-04-24T03:26:41;13.57;;;6.77;;
4202;SDS011;2115;51.038;7.006;2023-04-24T03:29:07;25.87;;;6.33;;
4202;SDS011;2115;51.038;7.006;2023-04-24T03:31:32;15.30;;;6.23;;
4202;SDS011;2115;51.038;7.006;2023-04-24T03:33:58;12.87;;;7.40;;
4202;SDS011;2115;51.038;7.006;2023-04-24T03:36:23;11.60;;;5.77;;
4202;SDS011;2115;51.038;7.006;2023-04-24T03:38:48;11.47;;;5.83;;
4202;SDS011;2115;51.038;7.006;2023-04-24T03:41:14;8.17;;;5.63;;
4202;SDS011;2115;51.038;7.006;2023-04-24T03:43:39;14.73;;;7.47;;
4202;SDS011;2115;51.038;7.006;2023-04-24T03:46:04;14.00;;;5.80;;
4202;SDS011;2115;51.038;7.006;2023-04-24T03:48:30;10.13;;;5.60;;
4202;SDS011;2115;51.038;7.006;2023-04-24T03:50:55;9.87;;;6.00;;
4202;SDS011;2115;51.038;7.006;2023-04-24T03:53:21;10.07;;;6.27;;
4202;SDS011;2115;51.038;7.006;2023-04-24T03:55:46;13.20;;;6.80;;
4202;SDS011;2115;51.038;7.006;2023-04-24T03:58:12;11.07;;;6.20;;
4202;SDS011;2115;51.038;7.006;2023-04-24T04:00:39;15.33;;;6.63;;
4202;SDS011;2115;51.038;7.006;2023-04-24T04:03:05;15.50;;;6.40;;
4202;SDS011;2115;51.038;7.006;2023-04-24T04:05:30;13.60;;;6.07;;
4202;SDS011;2115;51.038;7.006;2023-04-24T04:07:56;11.13;;;5.53;;
4202;SDS011;2115;51.038;7.006;2023-04-24T04:10:21;11.50;;;4.97;;
4202;SDS011;2115;51.038;7.006;2023-04-24T04:12:47;8.53;;;6.60;;
4202;SDS011;2115;51.038;7.006;2023-04-24T04:15:12;9.10;;;6.53;;
4202;SDS011;2115;51.038;7.006;2023-04-24T04:17:37;8.73;;;5.47;;
4202;SDS011;2115;51.038;7.006;2023-04-24T04:20:03;11.40;;;5.23;;
4202;SDS011;2115;51.038;7.006;2023-04-24T04:22:34;11.63;;;6.10;;
4202;SDS011;2115;51.038;7.006;2023-04-24T04:24:59;12.17;;;5.57;;
4202;SDS011;2115;51.038;7.006;2023-04-24T04:27:24;14.73;;;5.10;;
4202;SDS011;2115;51.038;7.006;2023-04-24T04:29:51;8.23;;;4.80;;
4202;SDS011;2115;51.038;7.006;2023-04-24T04:32:17;11.77;;;4.50;;
4202;SDS011;2115;51.038;7.006;2023-04-24T04:34:42;11.53;;;5.40;;
4202;SDS011;2115;51.038;7.006;2023-04-24T04:37:10;7.10;;;4.60;;
4202;SDS011;2115;51.038;7.006;2023-04-24T04:39:38;11.17;;;5.93;;
4202;SDS011;2115;51.038;7.006;2023-04-24T04:42:03;17.23;;;6.00;;
4202;SDS011;2115;51.038;7.006;2023-04-24T04:44:29;8.20;;;5.00;;
4202;SDS011;2115;51.038;7.006;2023-04-24T04:46:57;8.00;;;6.10;;
4202;SDS011;2115;51.038;7.006;2023-04-24T04:49:24;13.83;;;5.60;;
4202;SDS011;2115;51.038;7.006;2023-04-24T04:51:49;9.00;;;4.83;;
4202;SDS011;2115;51.038;7.006;2023-04-24T04:54:15;8.53;;;4.70;;
4202;SDS011;2115;51.038;7.006;2023-04-24T04:56:42;7.87;;;4.90;;
4202;SDS011;2115;51.038;7.006;2023-04-24T04:59:07;10.93;;;5.17;;
4202;SDS011;2115;51.038;7.006;2023-04-24T05:01:33;8.20;;;4.40;;
4202;SDS011;2115;51.038;7.006;2023-04-24T05:03:58;9.90;;;4.73;;
4202;SDS011;2115;51.038;7.006;2023-04-24T05:06:23;6.83;;;4.70;;
4202;SDS011;2115;51.038;7.006;2023-04-24T05:08:49;7.10;;;4.70;;
4202;SDS011;2115;51.038;7.006;2023-04-24T05:11:14;8.20;;;4.30;;
4202;SDS011;2115;51.038;7.006;2023-04-24T05:13:40;6.57;;;4.50;;
4202;SDS011;2115;51.038;7.006;2023-04-24T05:16:05;7.30;;;4.00;;
4202;SDS011;2115;51.038;7.006;2023-04-24T05:18:31;8.60;;;4.90;;
4202;SDS011;2115;51.038;7.006;2023-04-24T05:20:56;7.60;;;4.57;;
4202;SDS011;2115;51.038;7.006;2023-04-24T05:23:22;7.93;;;4.80;;
4202;SDS011;2115;51.038;7.006;2023-04-24T05:25:47;6.00;;;4.80;;
4202;SDS011;2115;51.038;7.006;2023-04-24T05:28:12;5.57;;;3.70;;
4202;SDS011;2115;51.038;7.006;2023-04-24T05:30:38;6.67;;;4.47;;
4202;SDS011;2115;51.038;7.006;2023-04-24T05:33:03;6.87;;;4.40;;
4202;SDS011;2115;51.038;7.006;2023-04-24T05:35:28;7.33;;;5.07;;
4202;SDS011;2115;51.038;7.006;2023-04-24T05:37:54;8.43;;;4.97;;
4202;SDS011;2115;51.038;7.006;2023-04-24T05:40:19;7.27;;;4.80;;
4202;SDS011;2115;51.038;7.006;2023-04-24T05:42:46;10.77;;;5.37;;
4202;SDS011;2115;51.038;7.006;2023-04-24T05:45:11;9.20;;;5.10;;
4202;SDS011;2115;51.038;7.006;2023-04-24T05:47:41;12.30;;;6.03;;
4202;SDS011;2115;51.038;7.006;2023-04-24T05:50:07;13.27;;;6.40;;
4202;SDS011;2115;51.038;7.006;2023-04-24T05:52:33;9.50;;;4.33;;
4202;SDS011;2115;51.038;7.006;2023-04-24T05:54:59;8.60;;;5.80;;
4202;SDS011;2115;51.038;7.006;2023-04-24T05:57:24;12.23;;;6.00;;
4202;SDS011;2115;51.038;7.006;2023-04-24T05:59:50;6.30;;;3.90;;
4202;SDS011;2115;51.038;7.006;2023-04-24T06:02:15;9.80;;;6.40;;
4202;SDS011;2115;51.038;7.006;2023-04-24T06:04:41;9.23;;;6.50;;
4202;SDS011;2115;51.038;7.006;2023-04-24T06:07:06;11.03;;;5.87;;
4202;SDS011;2115;51.038;7.006;2023-04-24T06:09:32;7.47;;;4.50;;
4202;SDS011;2115;51.038;7.006;2023-04-24T06:11:57;8.10;;;4.97;;
4202;SDS011;2115;51.038;7.006;2023-04-24T06:14:23;11.37;;;5.13;;
4202;SDS011;2115;51.038;7.006;2023-04-24T06:16:48;10.23;;;5.80;;
4202;SDS011;2115;51.038;7.006;2023-04-24T06:19:14;8.80;;;4.90;;
4202;SDS011;2115;51.038;7.006;2023-04-24T06:21:39;11.17;;;5.70;;
4202;SDS011;2115;51.038;7.006;2023-04-24T06:24:05;8.67;;;4.80;;
4202;SDS011;2115;51.038;7.006;2023-04-24T06:26:30;8.30;;;4.27;;
4202;SDS011;2115;51.038;7.006;2023-04-24T06:28:56;9.73;;;4.57;;
4202;SDS011;2115;51.038;7.006;2023-04-24T06:31:24;6.13;;;3.90;;
4202;SDS011;2115;51.038;7.006;2023-04-24T06:33:49;8.17;;;4.83;;
4202;SDS011;2115;51.038;7.006;2023-04-24T06:36:15;6.97;;;4.10;;
4202;SDS011;2115;51.038;7.006;2023-04-24T06:38:40;6.40;;;4.20;;
4202;SDS011;2115;51.038;7.006;2023-04-24T06:41:06;5.40;;;3.33;;
4202;SDS011;2115;51.038;7.006;2023-04-24T06:43:31;8.47;;;3.47;;
4202;SDS011;2115;51.038;7.006;2023-04-24T06:45:57;8.20;;;2.80;;
4202;SDS011;2115;51.038;7.006;2023-04-24T06:48:23;4.30;;;2.40;;
4202;SDS011;2115;51.038;7.006;2023-04-24T06:50:49;5.33;;;3.23;;
4202;SDS011;2115;51.038;7.006;2023-04-24T06:53:14;14.47;;;3.73;;
4202;SDS011;2115;51.038;7.006;2023-04-24T06:55:40;10.73;;;4.13;;
4202;SDS011;2115;51.038;7.006;2023-04-24T06:58:05;7.20;;;3.40;;
4202;SDS011;2115;51.038;7.006;2023-04-24T07:00:31;5.80;;;3.10;;
4202;SDS011;2115;51.038;7.006;2023-04-24T07:02:56;10.27;;;4.13;;
4202;SDS011;2115;51.038;7.006;2023-04-24T07:05:22;7.75;;;3.95;;
4202;SDS011;2115;51.038;7.006;2023-04-24T07:07:48;3.70;;;2.47;;
4202;SDS011;2115;51.038;7.006;2023-04-24T07:10:15;3.60;;;2.30;;
4202;SDS011;2115;51.038;7.006;2023-04-24T07:12:41;4.30;;;2.20;;
4202;SDS011;2115;51.038;7.006;2023-04-24T07:15:06;2.70;;;1.90;;
4202;SDS011;2115;51.038;7.006;2023-04-24T07:17:33;3.50;;;1.90;;
4202;SDS011;2115;51.038;7.006;2023-04-24T07:19:59;3.33;;;1.47;;
4202;SDS011;2115;51.038;7.006;2023-04-24T07:22:25;3.70;;;2.10;;
4202;SDS011;2115;51.038;7.006;2023-04-24T07:24:50;1.77;;;1.43;;
4202;SDS011;2115;51.038;7.006;2023-04-24T07:27:16;2.60;;;1.70;;
4202;SDS011;2115;51.038;7.006;2023-04-24T07:29:41;3.10;;;2.03;;
4202;SDS011;2115;51.038;7.006;2023-04-24T07:32:07;3.80;;;2.07;;
4202;SDS011;2115;51.038;7.006;2023-04-24T07:34:32;5.00;;;2.50;;
4202;SDS011;2115;51.038;7.006;2023-04-24T07:36:58;3.60;;;2.77;;
4202;SDS011;2115;51.038;7.006;2023-04-24T07:39:24;6.50;;;3.07;;
4202;SDS011;2115;51.038;7.006;2023-04-24T07:41:51;3.73;;;2.60;;
4202;SDS011;2115;51.038;7.006;2023-04-24T07:44:16;6.57;;;2.07;;
4202;SDS011;2115;51.038;7.006;2023-04-24T07:46:42;2.57;;;1.60;;
4202;SDS011;2115;51.038;7.006;2023-04-24T07:49:07;3.30;;;1.80;;
4202;SDS011;2115;51.038;7.006;2023-04-24T07:51:32;2.70;;;1.80;;
4202;SDS011;2115;51.038;7.006;2023-04-24T07:54:03;3.93;;;1.67;;
4202;SDS011;2115;51.038;7.006;2023-04-24T07:56:28;3.43;;;1.53;;
4202;SDS011;2115;51.038;7.006;2023-04-24T07:58:56;2.70;;;1.80;;
4202;SDS011;2115;51.038;7.006;2023-04-24T08:01:21;4.37;;;1.50;;
4202;SDS011;2115;51.038;7.006;2023-04-24T08:03:46;4.17;;;2.10;;
4202;SDS011;2115;51.038;7.006;2023-04-24T08:06:12;2.73;;;1.80;;
4202;SDS011;2115;51.038;7.006;2023-04-24T08:08:37;2.57;;;1.70;;
4202;SDS011;2115;51.038;7.006;2023-04-24T08:11:02;2.10;;;1.30;;
4202;SDS011;2115;51.038;7.006;2023-04-24T08:13:28;2.30;;;1.80;;
4202;SDS011;2115;51.038;7.006;2023-04-24T08:18:18;2.43;;;1.43;;
4202;SDS011;2115;51.038;7.006;2023-04-24T08:20:44;1.90;;;1.40;;
4202;SDS011;2115;51.038;7.006;2023-04-24T08:23:10;3.00;;;1.60;;
4202;SDS011;2115;51.038;7.006;2023-04-24T08:25:35;2.67;;;1.57;;
4202;SDS011;2115;51.038;7.006;2023-04-24T08:28:05;6.20;;;1.87;;
4202;SDS011;2115;51.038;7.006;2023-04-24T08:30:31;2.87;;;1.40;;
4202;SDS011;2115;51.038;7.006;2023-04-24T08:32:57;1.60;;;0.80;;
4202;SDS011;2115;51.038;7.006;2023-04-24T08:35:22;6.03;;;1.77;;
4202;SDS011;2115;51.038;7.006;2023-04-24T08:37:48;2.70;;;0.97;;
4202;SDS011;2115;51.038;7.006;2023-04-24T08:40:13;3.40;;;1.90;;
4202;SDS011;2115;51.038;7.006;2023-04-24T08:42:41;2.60;;;1.70;;
4202;SDS011;2115;51.038;7.006;2023-04-24T08:45:08;2.83;;;1.47;;
4202;SDS011;2115;51.038;7.006;2023-04-24T08:47:34;3.30;;;2.00;;
4202;SDS011;2115;51.038;7.006;2023-04-24T08:50:00;2.90;;;2.20;;
4202;SDS011;2115;51.038;7.006;2023-04-24T08:52:28;2.60;;;1.80;;
4202;SDS011;2115;51.038;7.006;2023-04-24T08:54:53;2.07;;;1.77;;
4202;SDS011;2115;51.038;7.006;2023-04-24T08:57:19;1.70;;;1.33;;
4202;SDS011;2115;51.038;7.006;2023-04-24T08:59:45;5.13;;;2.50;;
4202;SDS011;2115;51.038;7.006;2023-04-24T09:02:11;2.87;;;1.73;;
4202;SDS011;2115;51.038;7.006;2023-04-24T09:04:37;6.10;;;2.77;;
4202;SDS011;2115;51.038;7.006;2023-04-24T09:07:02;6.37;;;2.80;;
4202;SDS011;2115;51.038;7.006;2023-04-24T09:09:29;4.80;;;2.90;;
4202;SDS011;2115;51.038;7.006;2023-04-24T09:11:56;5.20;;;3.50;;
4202;SDS011;2115;51.038;7.006;2023-04-24T09:14:22;10.53;;;4.10;;
4202;SDS011;2115;51.038;7.006;2023-04-24T09:16:48;7.23;;;3.97;;
4202;SDS011;2115;51.038;7.006;2023-04-24T09:19:14;8.20;;;3.83;;
4202;SDS011;2115;51.038;7.006;2023-04-24T09:21:40;6.17;;;3.97;;
4202;SDS011;2115;51.038;7.006;2023-04-24T09:24:07;6.10;;;3.40;;
4202;SDS011;2115;51.038;7.006;2023-04-24T09:26:39;9.17;;;3.83;;
4202;SDS011;2115;51.038;7.006;2023-04-24T09:29:04;8.70;;;4.20;;
4202;SDS011;2115;51.038;7.006;2023-04-24T09:31:30;6.83;;;3.70;;
4202;SDS011;2115;51.038;7.006;2023-04-24T09:34:03;8.50;;;4.13;;
4202;SDS011;2115;51.038;7.006;2023-04-24T09:36:34;6.67;;;3.53;;
4202;SDS011;2115;51.038;7.006;2023-04-24T09:39:11;6.40;;;3.33;;
4202;SDS011;2115;51.038;7.006;2023-04-24T09:41:48;10.53;;;5.63;;
4202;SDS011;2115;51.038;7.006;2023-04-24T09:44:16;9.47;;;4.60;;
4202;SDS011;2115;51.038;7.006;2023-04-24T09:46:51;37.17;;;4.13;;
4202;SDS011;2115;51.038;7.006;2023-04-24T09:49:25;9.60;;;4.10;;
4202;SDS011;2115;51.038;7.006;2023-04-24T09:51:52;6.30;;;3.40;;
4202;SDS011;2115;51.038;7.006;2023-04-24T09:54:18;12.00;;;4.83;;
4202;SDS011;2115;51.038;7.006;2023-04-24T09:56:46;14.57;;;4.40;;
4202;SDS011;2115;51.038;7.006;2023-04-24T09:59:13;6.47;;;4.53;;
4202;SDS011;2115;51.038;7.006;2023-04-24T10:01:39;9.53;;;5.00;;
4202;SDS011;2115;51.038;7.006;2023-04-24T10:04:14;14.33;;;5.37;;
4202;SDS011;2115;51.038;7.006;2023-04-24T10:06:54;17.60;;;5.63;;
4202;SDS011;2115;51.038;7.006;2023-04-24T10:09:24;8.37;;;4.60;;
4202;SDS011;2115;51.038;7.006;2023-04-24T10:11:51;9.90;;;5.80;;
4202;SDS011;2115;51.038;7.006;2023-04-24T10:14:24;18.60;;;5.47;;
4202;SDS011;2115;51.038;7.006;2023-04-24T10:16:51;14.07;;;6.67;;
4202;SDS011;2115;51.038;7.006;2023-04-24T10:19:18;18.40;;;6.77;;
4202;SDS011;2115;51.038;7.006;2023-04-24T10:21:43;9.10;;;4.80;;
4202;SDS011;2115;51.038;7.006;2023-04-24T10:24:18;11.00;;;4.97;;
4202;SDS011;2115;51.038;7.006;2023-04-24T10:26:46;9.57;;;3.70;;
4202;SDS011;2115;51.038;7.006;2023-04-24T10:29:16;7.57;;;5.30;;
4202;SDS011;2115;51.038;7.006;2023-04-24T10:31:42;13.00;;;5.47;;
4202;SDS011;2115;51.038;7.006;2023-04-24T10:34:10;10.93;;;5.30;;
4202;SDS011;2115;51.038;7.006;2023-04-24T10:36:37;21.43;;;5.27;;
4202;SDS011;2115;51.038;7.006;2023-04-24T10:39:06;11.53;;;4.90;;
4202;SDS011;2115;51.038;7.006;2023-04-24T10:41:33;22.60;;;4.57;;
4202;SDS011;2115;51.038;7.006;2023-04-24T10:44:12;7.30;;;4.20;;
4202;SDS011;2115;51.038;7.006;2023-04-24T10:46:46;14.43;;;4.57;;
4202;SDS011;2115;51.038;7.006;2023-04-24T10:49:18;10.47;;;5.00;;
4202;SDS011;2115;51.038;7.006;2023-04-24T10:51:53;7.30;;;3.80;;
4202;SDS011;2115;51.038;7.006;2023-04-24T10:56:51;11.53;;;5.97;;
4202;SDS011;2115;51.038;7.006;2023-04-24T10:59:24;8.07;;;4.20;;
4202;SDS011;2115;51.038;7.006;2023-04-24T11:01:54;6.73;;;3.50;;
4202;SDS011;2115;51.038;7.006;2023-04-24T11:04:29;12.00;;;4.57;;
4202;SDS011;2115;51.038;7.006;2023-04-24T11:06:55;6.10;;;3.00;;
4202;SDS011;2115;51.038;7.006;2023-04-24T11:09:21;6.07;;;2.63;;
4202;SDS011;2115;51.038;7.006;2023-04-24T11:11:46;7.63;;;3.57;;
4202;SDS011;2115;51.038;7.006;2023-04-24T11:14:15;10.63;;;3.80;;
4202;SDS011;2115;51.038;7.006;2023-04-24T11:16:53;12.80;;;3.20;;
4202;SDS011;2115;51.038;7.006;2023-04-24T11:19:23;13.67;;;3.23;;
4202;SDS011;2115;51.038;7.006;2023-04-24T11:21:59;9.77;;;3.70;;
4202;SDS011;2115;51.038;7.006;2023-04-24T11:24:30;10.30;;;3.40;;
4202;SDS011;2115;51.038;7.006;2023-04-24T11:27:30;8.73;;;2.97;;
4202;SDS011;2115;51.038;7.006;2023-04-24T11:34:58;10.00;;;2.87;;
4202;SDS011;2115;51.038;7.006;2023-04-24T11:37:44;6.73;;;2.77;;
4202;SDS011;2115;51.038;7.006;2023-04-24T11:40:12;11.60;;;2.77;;
4202;SDS011;2115;51.038;7.006;2023-04-24T11:42:42;8.27;;;2.50;;
4202;SDS011;2115;51.038;7.006;2023-04-24T11:45:10;13.43;;;2.93;;
4202;SDS011;2115;51.038;7.006;2023-04-24T11:47:39;8.17;;;3.00;;
4202;SDS011;2115;51.038;7.006;2023-04-24T11:50:07;12.20;;;2.80;;
4202;SDS011;2115;51.038;7.006;2023-04-24T11:52:36;5.90;;;3.43;;
4202;SDS011;2115;51.038;7.006;2023-04-24T11:55:02;11.27;;;3.70;;
4202;SDS011;2115;51.038;7.006;2023-04-24T11:57:28;11.00;;;3.40;;
4202;SDS011;2115;51.038;7.006;2023-04-24T11:59:58;12.03;;;3.40;;
4202;SDS011;2115;51.038;7.006;2023-04-24T12:02:26;9.70;;;3.10;;
4202;SDS011;2115;51.038;7.006;2023-04-24T12:04:52;10.23;;;2.70;;
4202;SDS011;2115;51.038;7.006;2023-04-24T12:07:18;14.97;;;3.10;;
4202;SDS011;2115;51.038;7.006;2023-04-24T12:09:45;5.33;;;3.40;;
4202;SDS011;2115;51.038;7.006;2023-04-24T12:12:25;9.00;;;4.33;;
4202;SDS011;2115;51.038;7.006;2023-04-24T12:14:56;7.27;;;3.20;;
4202;SDS011;2115;51.038;7.006;2023-04-24T12:17:29;9.40;;;2.90;;
4202;SDS011;2115;51.038;7.006;2023-04-24T12:19:59;5.97;;;2.80;;
4202;SDS011;2115;51.038;7.006;2023-04-24T12:22:26;9.33;;;2.90;;
4202;SDS011;2115;51.038;7.006;2023-04-24T12:24:58;11.70;;;3.03;;
4202;SDS011;2115;51.038;7.006;2023-04-24T12:27:25;7.37;;;3.60;;
4202;SDS011;2115;51.038;7.006;2023-04-24T12:30:01;8.30;;;3.20;;
4202;SDS011;2115;51.038;7.006;2023-04-24T12:32:28;10.37;;;3.70;;
4202;SDS011;2115;51.038;7.006;2023-04-24T12:34:54;9.87;;;3.20;;
4202;SDS011;2115;51.038;7.006;2023-04-24T12:37:20;12.67;;;3.20;;
4202;SDS011;2115;51.038;7.006;2023-04-24T12:40:06;17.60;;;3.10;;
4202;SDS011;2115;51.038;7.006;2023-04-24T12:42:33;7.40;;;2.07;;
4202;SDS011;2115;51.038;7.006;2023-04-24T12:45:02;6.80;;;2.90;;
4202;SDS011;2115;51.038;7.006;2023-04-24T12:47:29;12.70;;;2.80;;
4202;SDS011;2115;51.038;7.006;2023-04-24T12:49:55;10.77;;;2.90;;
4202;SDS011;2115;51.038;7.006;2023-04-24T12:52:21;8.40;;;2.60;;
4202;SDS011;2115;51.038;7.006;2023-04-24T12:54:48;6.27;;;2.80;;
4202;SDS011;2115;51.038;7.006;2023-04-24T12:57:13;10.80;;;2.80;;
4202;SDS011;2115;51.038;7.006;2023-04-24T12:59:39;5.57;;;2.63;;
4202;SDS011;2115;51.038;7.006;2023-04-24T13:02:05;5.00;;;2.50;;
4202;SDS011;2115;51.038;7.006;2023-04-24T13:04:31;8.63;;;2.87;;
4202;SDS011;2115;51.038;7.006;2023-04-24T13:06:57;8.43;;;2.80;;
4202;SDS011;2115;51.038;7.006;2023-04-24T13:09:22;5.67;;;2.13;;
4202;SDS011;2115;51.038;7.006;2023-04-24T13:11:49;9.97;;;2.50;;
4202;SDS011;2115;51.038;7.006;2023-04-24T13:14:15;7.13;;;3.10;;
4202;SDS011;2115;51.038;7.006;2023-04-24T13:16:40;6.43;;;2.10;;
4202;SDS011;2115;51.038;7.006;2023-04-24T13:19:06;12.40;;;3.27;;
4202;SDS011;2115;51.038;7.006;2023-04-24T13:21:31;12.00;;;3.23;;
4202;SDS011;2115;51.038;7.006;2023-04-24T13:23:56;9.13;;;3.23;;
4202;SDS011;2115;51.038;7.006;2023-04-24T13:26:24;8.13;;;3.20;;
4202;SDS011;2115;51.038;7.006;2023-04-24T13:28:50;8.77;;;2.80;;
4202;SDS011;2115;51.038;7.006;2023-04-24T13:31:15;4.87;;;2.70;;
4202;SDS011;2115;51.038;7.006;2023-04-24T13:33:41;6.73;;;3.20;;
4202;SDS011;2115;51.038;7.006;2023-04-24T13:36:06;7.87;;;2.23;;
4202;SDS011;2115;51.038;7.006;2023-04-24T13:38:32;6.50;;;2.10;;
4202;SDS011;2115;51.038;7.006;2023-04-24T13:40:57;7.00;;;3.20;;
4202;SDS011;2115;51.038;7.006;2023-04-24T13:43:22;4.90;;;2.40;;
4202;SDS011;2115;51.038;7.006;2023-04-24T13:45:48;11.63;;;3.23;;
4202;SDS011;2115;51.038;7.006;2023-04-24T13:48:13;13.30;;;3.27;;
4202;SDS011;2115;51.038;7.006;2023-04-24T13:50:40;6.60;;;2.60;;
4202;SDS011;2115;51.038;7.006;2023-04-24T13:53:07;9.10;;;2.93;;
4202;SDS011;2115;51.038;7.006;2023-04-24T13:55:32;9.33;;;2.87;;
4202;SDS011;2115;51.038;7.006;2023-04-24T13:57:57;6.13;;;2.53;;
4202;SDS011;2115;51.038;7.006;2023-04-24T14:00:23;4.60;;;2.57;;
4202;SDS011;2115;51.038;7.006;2023-04-24T14:02:48;7.47;;;2.80;;
4202;SDS011;2115;51.038;7.006;2023-04-24T14:05:14;4.33;;;2.10;;
4202;SDS011;2115;51.038;7.006;2023-04-24T14:07:40;10.17;;;3.83;;
4202;SDS011;2115;51.038;7.006;2023-04-24T14:10:06;6.67;;;2.50;;
4202;SDS011;2115;51.038;7.006;2023-04-24T14:12:33;5.93;;;2.40;;
4202;SDS011;2115;51.038;7.006;2023-04-24T14:14:59;7.63;;;2.83;;
4202;SDS011;2115;51.038;7.006;2023-04-24T14:17:26;13.43;;;3.83;;
4202;SDS011;2115;51.038;7.006;2023-04-24T14:19:51;8.83;;;2.87;;
4202;SDS011;2115;51.038;7.006;2023-04-24T14:22:21;7.23;;;2.60;;
4202;SDS011;2115;51.038;7.006;2023-04-24T14:24:46;5.87;;;2.03;;
4202;SDS011;2115;51.038;7.006;2023-04-24T14:27:11;11.43;;;2.87;;
4202;SDS011;2115;51.038;7.006;2023-04-24T14:29:37;7.30;;;3.37;;
4202;SDS011;2115;51.038;7.006;2023-04-24T14:32:02;5.30;;;2.23;;
4202;SDS011;2115;51.038;7.006;2023-04-24T14:34:28;15.67;;;2.70;;
4202;SDS011;2115;51.038;7.006;2023-04-24T14:36:53;13.23;;;2.80;;
4202;SDS011;2115;51.038;7.006;2023-04-24T14:39:19;6.80;;;2.13;;
4202;SDS011;2115;51.038;7.006;2023-04-24T14:41:45;8.83;;;2.90;;
4202;SDS011;2115;51.038;7.006;2023-04-24T14:44:10;7.90;;;2.73;;
4202;SDS011;2115;51.038;7.006;2023-04-24T14:46:36;5.87;;;2.37;;
4202;SDS011;2115;51.038;7.006;2023-04-24T14:49:01;11.90;;;2.70;;
4202;SDS011;2115;51.038;7.006;2023-04-24T14:51:27;6.97;;;2.27;;
4202;SDS011;2115;51.038;7.006;2023-04-24T14:53:52;5.40;;;2.60;;
4202;SDS011;2115;51.038;7.006;2023-04-24T14:56:18;5.10;;;2.50;;
4202;SDS011;2115;51.038;7.006;2023-04-24T14:58:43;5.07;;;2.00;;
4202;SDS011;2115;51.038;7.006;2023-04-24T15:01:08;5.63;;;2.30;;
4202;SDS011;2115;51.038;7.006;2023-04-24T15:03:34;7.07;;;2.53;;
4202;SDS011;2115;51.038;7.006;2023-04-24T15:05:59;6.97;;;2.30;;
4202;SDS011;2115;51.038;7.006;2023-04-24T15:08:25;6.10;;;3.00;;
4202;SDS011;2115;51.038;7.006;2023-04-24T15:10:51;6.73;;;2.23;;
4202;SDS011;2115;51.038;7.006;2023-04-24T15:13:16;5.77;;;2.83;;
4202;SDS011;2115;51.038;7.006;2023-04-24T15:15:42;5.43;;;2.43;;
4202;SDS011;2115;51.038;7.006;2023-04-24T15:18:08;8.37;;;3.30;;